Terminal Aerodrome Forecast
Issued by NWS Pittsburgh, PA

Home | Current Version | Previous Version | Text Only | Print | Product List | Glossary On
Versions: 1 2 3 4 5 6 7 8 9 10 11 12 13 14 15 16 17 18 19 20 21 22 23 24 25 26 27 28 29
000
FTUS41 KPBZ 071733
TAFPIT
TAF
KPIT 071733Z 0718/0824 21012G20KT P6SM BKN035
     FM080100 23008KT 4SM TSRA OVC030CB
      TEMPO 0802/0804 2SM TSRA OVC020CB
     FM080600 24008KT 3SM -SHRA BR OVC008
     FM081500 33004KT 6SM BR OVC012
     FM081800 34005KT P6SM VCSH BKN025=

USA.gov is the U.S. government's official web portal to all federal, state and local government web resources and services.